createdAt,value
2023-02-02T00:02:12.562Z,94.34
2023-02-02T00:04:40.865Z,94.84
2023-02-02T00:07:09.777Z,94.38
2023-02-02T00:09:38.240Z,94.96
2023-02-02T00:12:07.295Z,94.84
2023-02-02T00:14:38.582Z,94.86
2023-02-02T00:17:10.483Z,94.82
2023-02-02T00:19:38.876Z,95.06
2023-02-02T00:22:07.457Z,94.94
2023-02-02T00:24:35.849Z,94.85
2023-02-02T00:27:04.644Z,94.88
2023-02-02T00:29:34.396Z,94.81
2023-02-02T00:32:02.807Z,94.65
2023-02-02T00:34:31.179Z,94.70
2023-02-02T00:36:59.835Z,94.71
2023-02-02T00:39:29.066Z,94.52
2023-02-02T00:41:57.499Z,94.42
2023-02-02T00:44:44.413Z,94.47
2023-02-02T00:47:13.231Z,94.36
2023-02-02T00:49:41.717Z,94.34
2023-02-02T00:52:10.667Z,94.49
2023-02-02T00:54:39.239Z,94.64
2023-02-02T00:57:09.039Z,94.53
2023-02-02T00:59:37.446Z,94.68
2023-02-02T01:02:05.957Z,94.75
2023-02-02T01:04:34.396Z,94.46
2023-02-02T01:07:02.925Z,94.58
2023-02-02T01:09:31.416Z,94.55
2023-02-02T01:11:59.818Z,94.43
2023-02-02T01:14:28.520Z,94.25
2023-02-02T01:16:56.956Z,93.99
2023-02-02T01:19:25.453Z,93.83
2023-02-02T01:21:53.920Z,93.64
2023-02-02T01:24:22.278Z,93.34
2023-02-02T01:26:50.999Z,92.97
2023-02-02T01:29:19.815Z,92.54
2023-02-02T01:31:48.501Z,92.63
2023-02-02T01:34:17.114Z,92.76
2023-02-02T01:36:45.834Z,92.54
2023-02-02T01:39:14.525Z,92.75
2023-02-02T01:41:43.016Z,92.76
2023-02-02T01:44:47.739Z,92.66
2023-02-02T01:47:16.544Z,92.76
2023-02-02T01:49:45.171Z,92.80
2023-02-02T01:52:14.837Z,92.99
2023-02-02T01:54:46.384Z,93.30
2023-02-02T01:57:20.199Z,93.30
2023-02-02T01:59:48.842Z,93.50
2023-02-02T02:02:17.976Z,93.82
2023-02-02T02:04:46.654Z,93.87
2023-02-02T02:07:15.088Z,93.89
2023-02-02T02:09:43.495Z,94.17
2023-02-02T02:12:14.877Z,94.22
2023-02-02T02:15:06.638Z,94.69
2023-02-02T02:17:46.552Z,94.97
2023-02-02T02:20:57.769Z,95.38
2023-02-02T02:24:23.429Z,96.30
2023-02-02T02:27:06.397Z,96.69
2023-02-02T02:30:02.717Z,96.71
2023-02-02T02:32:37.619Z,97.22
2023-02-02T02:35:12.221Z,96.99
2023-02-02T02:37:47.214Z,97.29
2023-02-02T02:40:22.186Z,97.46
2023-02-02T02:42:54.927Z,97.41
2023-02-02T02:45:24.774Z,97.77
2023-02-02T02:47:54.372Z,97.82
2023-02-02T02:50:23.427Z,97.92
2023-02-02T02:52:59.012Z,98.17
2023-02-02T02:55:32.621Z,97.71
2023-02-02T02:58:06.716Z,97.86
2023-02-02T03:00:40.412Z,97.64
2023-02-02T03:03:16.100Z,97.61
2023-02-02T03:05:51.159Z,97.44
2023-02-02T03:08:24.254Z,97.52
2023-02-02T03:10:53.598Z,98.05
2023-02-02T03:13:22.094Z,97.95
2023-02-02T03:15:50.488Z,97.46
2023-02-02T03:18:20.371Z,98.26
2023-02-02T03:20:49.104Z,98.33
2023-02-02T03:23:17.805Z,98.54
2023-02-02T03:25:46.670Z,98.52
2023-02-02T03:28:15.314Z,98.88
2023-02-02T03:30:44.440Z,98.49
2023-02-02T03:33:16.076Z,98.28
2023-02-02T03:35:46.780Z,98.28
2023-02-02T03:38:15.159Z,98.35
2023-02-02T03:40:43.577Z,98.42
2023-02-02T03:43:12.136Z,98.67
2023-02-02T03:45:40.499Z,98.62
2023-02-02T03:48:09.010Z,98.74
2023-02-02T03:50:37.716Z,98.67
2023-02-02T03:53:06.107Z,98.37
2023-02-02T03:55:34.852Z,98.48
2023-02-02T03:58:03.568Z,98.24
2023-02-02T04:00:32.076Z,97.97
2023-02-02T04:03:00.453Z,97.96
2023-02-02T04:05:29.249Z,97.92
2023-02-02T04:07:57.585Z,97.97
2023-02-02T04:10:26.066Z,97.94
2023-02-02T04:12:54.516Z,97.89
2023-02-02T04:15:23.397Z,97.69
2023-02-02T04:17:52.001Z,97.70
2023-02-02T04:20:20.550Z,97.57
2023-02-02T04:22:50.104Z,97.54
2023-02-02T04:25:18.601Z,97.50
2023-02-02T04:27:48.388Z,97.23
2023-02-02T04:30:19.320Z,97.02
2023-02-02T04:32:47.746Z,97.19
2023-02-02T04:35:16.474Z,96.96
2023-02-02T04:37:45.021Z,96.84
2023-02-02T04:40:15.132Z,96.81
2023-02-02T04:42:44.830Z,96.73
2023-02-02T04:45:13.456Z,96.64
2023-02-02T04:47:41.806Z,96.55
2023-02-02T04:50:11.929Z,96.39
2023-02-02T04:52:40.586Z,96.21
2023-02-02T04:55:10.475Z,96.31
2023-02-02T04:57:38.975Z,95.86
2023-02-02T05:00:10.763Z,95.74
2023-02-02T05:02:40.293Z,95.71
2023-02-02T05:05:12.814Z,95.57
2023-02-02T05:07:41.502Z,95.32
2023-02-02T05:10:12.127Z,95.38
2023-02-02T05:12:40.459Z,95.26
2023-02-02T05:15:11.262Z,95.07
2023-02-02T05:17:39.637Z,95.11
2023-02-02T05:20:10.429Z,95.05
2023-02-02T05:22:39.288Z,94.95
2023-02-02T05:25:09.380Z,94.89
2023-02-02T05:27:37.731Z,94.93
2023-02-02T05:30:09.016Z,94.90
2023-02-02T05:32:37.393Z,94.81
2023-02-02T05:35:08.991Z,94.65
2023-02-02T05:37:37.369Z,94.61
2023-02-02T05:40:07.609Z,94.64
2023-02-02T05:42:36.186Z,94.55
2023-02-02T05:45:05.834Z,94.34
2023-02-02T05:47:35.105Z,94.22
2023-02-02T05:50:03.925Z,94.39
2023-02-02T05:52:33.869Z,94.17
2023-02-02T05:55:05.587Z,94.18
2023-02-02T05:57:34.365Z,94.11
2023-02-02T06:00:04.507Z,94.16
2023-02-02T06:02:32.903Z,93.95
2023-02-02T06:05:02.942Z,94.10
2023-02-02T06:07:31.391Z,93.94
2023-02-02T06:09:59.815Z,93.87
2023-02-02T06:12:28.310Z,93.76
2023-02-02T06:14:56.685Z,93.77
2023-02-02T06:17:25.127Z,93.68
2023-02-02T06:19:53.523Z,93.49
2023-02-02T06:22:21.863Z,93.47
2023-02-02T06:24:52.787Z,93.39
2023-02-02T06:27:21.239Z,93.38
2023-02-02T06:29:49.600Z,93.39
2023-02-02T06:32:18.017Z,93.10
2023-02-02T06:34:46.446Z,93.30
2023-02-02T06:37:14.796Z,93.01
2023-02-02T06:39:43.294Z,93.01
2023-02-02T06:42:20.779Z,93.05
2023-02-02T06:44:50.404Z,93.06
2023-02-02T06:47:18.812Z,92.86
2023-02-02T06:49:47.206Z,92.87
2023-02-02T06:52:16.140Z,92.62
2023-02-02T06:54:44.589Z,92.59
2023-02-02T06:57:12.970Z,92.46
2023-02-02T06:59:41.405Z,92.34
2023-02-02T07:02:12.599Z,92.26
2023-02-02T07:04:40.932Z,92.22
2023-02-02T07:07:09.321Z,92.22
2023-02-02T07:09:37.907Z,92.31
2023-02-02T07:12:06.996Z,92.31
2023-02-02T07:14:37.677Z,92.28
2023-02-02T07:17:06.116Z,92.19
2023-02-02T07:19:34.478Z,92.14
2023-02-02T07:22:03.371Z,92.08
2023-02-02T07:24:32.553Z,91.95
2023-02-02T07:27:01.327Z,92.07
2023-02-02T07:29:29.959Z,92.28
2023-02-02T07:31:58.664Z,92.18
2023-02-02T07:34:27.179Z,92.25
2023-02-02T07:36:55.710Z,92.27
2023-02-02T07:39:24.173Z,92.41
2023-02-02T07:41:52.627Z,92.59
2023-02-02T07:44:21.195Z,92.66
2023-02-02T07:46:49.815Z,92.55
2023-02-02T07:49:19.725Z,92.67
2023-02-02T07:51:50.142Z,92.61
2023-02-02T07:54:18.583Z,92.74
2023-02-02T07:56:46.962Z,92.71
2023-02-02T07:59:15.816Z,92.63
2023-02-02T08:01:44.284Z,92.91
2023-02-02T08:04:12.674Z,92.85
2023-02-02T08:06:41.218Z,92.91
2023-02-02T08:09:10.310Z,92.97
2023-02-02T08:11:39.180Z,92.97
2023-02-02T08:14:08.021Z,92.99
2023-02-02T08:16:36.748Z,93.08
2023-02-02T08:19:05.236Z,93.23
2023-02-02T08:21:34.225Z,93.21
2023-02-02T08:24:03.919Z,93.16
2023-02-02T08:26:32.624Z,93.36
2023-02-02T08:29:03.666Z,93.23
2023-02-02T08:31:34.173Z,93.20
2023-02-02T08:34:04.059Z,93.36
2023-02-02T08:36:34.807Z,93.19
2023-02-02T08:39:05.677Z,93.28
2023-02-02T08:41:36.266Z,93.25
2023-02-02T08:44:06.811Z,93.06
2023-02-02T08:46:35.501Z,93.17
2023-02-02T08:49:04.353Z,93.19
2023-02-02T08:51:32.712Z,93.02
2023-02-02T08:54:02.787Z,93.20
2023-02-02T08:56:31.943Z,93.20
2023-02-02T08:59:02.534Z,93.11
2023-02-02T09:01:33.119Z,92.91
2023-02-02T09:04:03.945Z,92.86
2023-02-02T09:06:34.209Z,93.01
2023-02-02T09:09:04.347Z,93.16
2023-02-02T09:11:36.162Z,93.12
2023-02-02T09:14:05.875Z,93.02
2023-02-02T09:16:35.524Z,93.00
2023-02-02T09:19:04.776Z,93.24
2023-02-02T09:21:36.141Z,93.04
2023-02-02T09:24:09.072Z,93.25
2023-02-02T09:26:39.849Z,92.79
2023-02-02T09:29:11.218Z,92.93
2023-02-02T09:31:40.332Z,92.97
2023-02-02T09:34:10.872Z,93.22
2023-02-02T09:36:39.939Z,93.01
2023-02-02T09:39:08.333Z,92.73
2023-02-02T09:42:05.427Z,93.03
2023-02-02T09:44:52.705Z,92.89
2023-02-02T09:47:25.507Z,92.77
2023-02-02T09:49:59.007Z,92.50
2023-02-02T09:52:29.869Z,92.49
2023-02-02T09:55:02.761Z,92.38
2023-02-02T09:57:36.993Z,92.62
2023-02-02T10:00:24.814Z,92.48
2023-02-02T10:02:55.208Z,92.57
2023-02-02T10:05:28.242Z,92.50
2023-02-02T10:08:00.507Z,92.74
2023-02-02T10:10:32.350Z,92.83
2023-02-02T10:13:06.381Z,92.84
2023-02-02T10:15:37.329Z,93.08
2023-02-02T10:18:11.733Z,92.89
2023-02-02T10:20:45.333Z,92.90
2023-02-02T10:23:22.876Z,92.98
2023-02-02T10:25:57.109Z,93.05
2023-02-02T10:28:41.239Z,92.92
2023-02-02T10:31:11.459Z,93.03
2023-02-02T10:33:40.622Z,93.02
2023-02-02T10:36:16.291Z,93.10
2023-02-02T10:38:48.246Z,93.44
2023-02-02T10:41:23.627Z,93.44
2023-02-02T10:44:05.838Z,93.25
2023-02-02T10:46:38.248Z,93.51
2023-02-02T10:49:16.824Z,93.80
2023-02-02T10:51:51.055Z,93.83
2023-02-02T10:54:56.034Z,93.65
2023-02-02T10:57:37.344Z,93.46
2023-02-02T11:00:14.850Z,93.56
2023-02-02T11:02:43.315Z,93.71
2023-02-02T11:05:39.877Z,93.74
2023-02-02T11:08:16.965Z,93.95
2023-02-02T11:10:47.197Z,93.96
2023-02-02T11:13:21.390Z,93.84
2023-02-02T11:15:50.879Z,94.41
2023-02-02T11:18:30.550Z,94.64
2023-02-02T11:20:59.612Z,94.36
2023-02-02T11:23:28.226Z,93.99
2023-02-02T11:26:02.005Z,94.16
2023-02-02T11:28:34.471Z,94.20
2023-02-02T11:31:03.333Z,94.43
2023-02-02T11:33:32.969Z,94.37
2023-02-02T11:36:02.720Z,94.05
2023-02-02T11:38:31.743Z,94.28
2023-02-02T11:41:03.078Z,94.16
2023-02-02T11:43:34.231Z,94.50
2023-02-02T11:46:04.611Z,94.62
2023-02-02T11:48:36.006Z,94.84
2023-02-02T11:51:06.361Z,94.88
2023-02-02T11:53:37.062Z,95.03
2023-02-02T11:56:08.825Z,95.13
2023-02-02T11:58:47.637Z,95.37
2023-02-02T12:01:25.312Z,95.65
2023-02-02T12:03:55.015Z,95.75
2023-02-02T12:06:25.039Z,95.91
2023-02-02T12:08:57.318Z,95.69
2023-02-02T12:11:35.971Z,95.89
2023-02-02T12:14:15.740Z,96.14
2023-02-02T12:16:53.233Z,95.93
2023-02-02T12:19:38.011Z,96.00
2023-02-02T12:22:17.091Z,96.00
2023-02-02T12:24:51.101Z,95.94
2023-02-02T12:27:30.645Z,95.71
2023-02-02T12:30:10.262Z,95.94
2023-02-02T12:32:57.539Z,95.94
2023-02-02T12:35:37.454Z,96.21
2023-02-02T12:38:13.003Z,96.87
2023-02-02T12:40:51.999Z,96.97
2023-02-02T12:43:27.307Z,96.32
2023-02-02T12:46:11.842Z,95.83
2023-02-02T12:48:47.842Z,95.78
2023-02-02T12:51:37.163Z,95.48
2023-02-02T12:54:33.891Z,95.64
2023-02-02T12:57:11.532Z,95.82
2023-02-02T12:59:58.358Z,95.55
2023-02-02T13:02:32.892Z,95.19
2023-02-02T13:05:12.816Z,95.16
2023-02-02T13:07:44.261Z,95.67
2023-02-02T13:10:24.154Z,95.66
2023-02-02T13:12:55.287Z,95.91
2023-02-02T13:15:29.048Z,95.69
2023-02-02T13:17:59.539Z,95.77
2023-02-02T13:20:38.116Z,95.26
2023-02-02T13:23:11.275Z,95.15
2023-02-02T13:25:45.944Z,94.54
2023-02-02T13:28:19.881Z,94.20
2023-02-02T13:30:47.626Z,94.36
2023-02-02T13:33:20.300Z,93.90
2023-02-02T13:35:53.794Z,93.69
2023-02-02T13:38:24.267Z,93.92
2023-02-02T13:40:55.449Z,94.15
2023-02-02T13:43:32.710Z,93.92
2023-02-02T13:46:09.617Z,93.47
2023-02-02T13:48:45.446Z,92.90
2023-02-02T13:51:37.388Z,93.04
2023-02-02T13:54:21.657Z,93.00
2023-02-02T13:56:54.002Z,92.57
2023-02-02T13:59:50.701Z,92.56
2023-02-02T14:02:25.521Z,92.41
2023-02-02T14:04:56.651Z,92.23
2023-02-02T14:07:30.974Z,92.21
2023-02-02T14:09:59.805Z,91.72
2023-02-02T14:12:33.465Z,91.79
2023-02-02T14:15:02.398Z,91.48
2023-02-02T14:17:50.660Z,91.66
2023-02-02T14:20:54.592Z,91.74
2023-02-02T14:23:57.720Z,91.56
2023-02-02T14:26:42.501Z,91.55
2023-02-02T14:29:41.315Z,91.50
2023-02-02T14:32:34.149Z,91.47
2023-02-02T14:35:41.000Z,91.50
2023-02-02T14:38:14.052Z,91.16
2023-02-02T14:40:51.201Z,90.26
2023-02-02T14:43:45.593Z,89.51
2023-02-02T14:46:34.469Z,89.66
2023-02-02T14:49:20.831Z,89.95
2023-02-02T14:51:55.134Z,90.12
2023-02-02T14:54:28.898Z,90.17
2023-02-02T14:57:02.837Z,89.69
2023-02-02T14:59:34.595Z,89.33
2023-02-02T15:02:16.944Z,89.18
2023-02-02T15:04:47.422Z,88.95
2023-02-02T15:07:38.811Z,88.98
2023-02-02T15:10:09.999Z,88.53
2023-02-02T15:12:40.961Z,88.14
2023-02-02T15:15:20.442Z,87.59
2023-02-02T15:18:01.192Z,87.62
2023-02-02T15:20:32.335Z,87.37
2023-02-02T15:23:05.869Z,87.38
2023-02-02T15:25:40.768Z,87.34
2023-02-02T15:28:20.341Z,87.37
2023-02-02T15:30:53.304Z,87.71
2023-02-02T15:33:27.182Z,87.64
2023-02-02T15:35:58.081Z,87.62
2023-02-02T15:38:33.282Z,87.55
2023-02-02T15:41:05.967Z,87.27
2023-02-02T15:43:35.641Z,86.76
2023-02-02T15:46:09.637Z,86.70
2023-02-02T15:48:38.361Z,86.44
2023-02-02T15:51:14.157Z,86.23
2023-02-02T15:53:49.277Z,86.35
2023-02-02T15:56:29.235Z,86.14
2023-02-02T15:58:59.300Z,85.85
2023-02-02T16:01:31.593Z,85.85
2023-02-02T16:04:06.129Z,85.48
2023-02-02T16:06:36.947Z,84.58
2023-02-02T16:09:05.712Z,84.81
2023-02-02T16:11:34.887Z,84.74
2023-02-02T16:14:05.344Z,85.10
2023-02-02T16:16:38.908Z,85.43
2023-02-02T16:19:14.420Z,85.64
2023-02-02T16:21:48.101Z,86.14
2023-02-02T16:24:20.631Z,86.34
2023-02-02T16:26:49.789Z,86.70
2023-02-02T16:29:20.816Z,86.82
2023-02-02T16:31:50.771Z,86.41
2023-02-02T16:34:40.073Z,86.64
2023-02-02T16:37:14.245Z,86.69
2023-02-02T16:39:42.800Z,86.46
2023-02-02T16:42:12.157Z,86.51
2023-02-02T16:44:44.371Z,86.66
2023-02-02T16:47:34.310Z,87.04
2023-02-02T16:50:26.311Z,86.64
2023-02-02T16:52:57.666Z,86.40
2023-02-02T16:55:39.830Z,86.73
2023-02-02T16:58:20.484Z,86.75
2023-02-02T17:01:12.735Z,86.73
2023-02-02T17:03:49.311Z,86.28
2023-02-02T17:06:19.372Z,86.46
2023-02-02T17:08:53.530Z,86.61
2023-02-02T17:11:25.031Z,86.69
2023-02-02T17:13:54.633Z,86.47
2023-02-02T17:16:24.872Z,86.52
2023-02-02T17:18:56.641Z,86.43
2023-02-02T17:21:26.158Z,86.62
2023-02-02T17:23:55.719Z,87.01
2023-02-02T17:26:27.314Z,87.21
2023-02-02T17:28:56.586Z,87.20
2023-02-02T17:31:26.581Z,87.34
2023-02-02T17:33:55.294Z,87.40
2023-02-02T17:36:24.511Z,87.65
2023-02-02T17:38:53.431Z,87.52
2023-02-02T17:41:22.197Z,87.71
2023-02-02T17:43:51.227Z,87.61
2023-02-02T17:46:19.961Z,88.06
2023-02-02T17:48:48.818Z,87.93
2023-02-02T17:51:17.982Z,88.07
2023-02-02T17:53:46.476Z,88.05
2023-02-02T17:56:15.129Z,88.17
2023-02-02T17:58:43.936Z,88.22
2023-02-02T18:01:12.928Z,88.21
2023-02-02T18:03:44.744Z,88.60
2023-02-02T18:06:13.451Z,88.52
2023-02-02T18:08:41.996Z,88.41
2023-02-02T18:11:12.998Z,88.78
2023-02-02T18:13:42.813Z,89.60
2023-02-02T18:16:12.339Z,88.09
2023-02-02T18:18:41.245Z,87.89
2023-02-02T18:21:11.456Z,87.83
2023-02-02T18:23:40.668Z,87.72
2023-02-02T18:26:14.739Z,87.63
2023-02-02T18:28:42.261Z,87.64
2023-02-02T18:31:13.220Z,87.51
2023-02-02T18:33:41.726Z,87.86
2023-02-02T18:36:14.701Z,87.74
2023-02-02T18:38:44.541Z,88.00
2023-02-02T18:41:14.064Z,88.27
2023-02-02T18:43:43.598Z,88.00
2023-02-02T18:46:14.515Z,87.95
2023-02-02T18:48:44.569Z,87.97
2023-02-02T18:51:15.795Z,88.20
2023-02-02T18:53:44.997Z,88.09
2023-02-02T18:56:14.740Z,87.81
2023-02-02T18:58:43.402Z,88.01
2023-02-02T19:01:14.528Z,88.07
2023-02-02T19:03:46.968Z,88.03
2023-02-02T19:06:33.935Z,87.88
2023-02-02T19:09:02.514Z,87.88
2023-02-02T19:11:36.244Z,88.01
2023-02-02T19:14:10.557Z,87.83
2023-02-02T19:16:39.136Z,87.99
2023-02-02T19:19:16.474Z,87.87
2023-02-02T19:21:45.218Z,87.90
2023-02-02T19:24:14.322Z,87.98
2023-02-02T19:26:46.166Z,87.57
2023-02-02T19:29:18.792Z,87.17
2023-02-02T19:31:53.034Z,87.11
2023-02-02T19:34:23.279Z,87.44
2023-02-02T19:36:52.410Z,87.16
2023-02-02T19:39:24.533Z,86.52
2023-02-02T19:41:56.868Z,86.49
2023-02-02T19:44:29.325Z,86.70
2023-02-02T19:47:02.196Z,86.81
2023-02-02T19:49:33.549Z,86.53
2023-02-02T19:52:04.190Z,86.72
2023-02-02T19:54:41.147Z,86.64
2023-02-02T19:57:20.471Z,86.49
2023-02-02T19:59:51.949Z,86.80
2023-02-02T20:02:38.546Z,86.77
2023-02-02T20:05:18.373Z,87.06
2023-02-02T20:07:47.189Z,87.13
2023-02-02T20:10:21.008Z,87.55
2023-02-02T20:12:50.101Z,87.52
2023-02-02T20:15:30.065Z,87.80
2023-02-02T20:18:01.362Z,87.80
2023-02-02T20:20:35.103Z,88.12
2023-02-02T20:23:08.088Z,88.25
2023-02-02T20:25:37.962Z,88.50
2023-02-02T20:28:15.445Z,88.38
2023-02-02T20:30:44.172Z,88.45
2023-02-02T20:33:21.151Z,88.29
2023-02-02T20:35:49.980Z,88.07
2023-02-02T20:38:22.186Z,87.98
2023-02-02T20:40:52.063Z,87.87
2023-02-02T20:43:21.145Z,88.02
2023-02-02T20:45:49.660Z,87.92
2023-02-02T20:48:18.272Z,87.89
2023-02-02T20:50:47.100Z,87.68
2023-02-02T20:53:15.991Z,87.75
2023-02-02T20:55:46.379Z,87.63
2023-02-02T20:58:15.073Z,87.49
2023-02-02T21:00:43.683Z,87.47
2023-02-02T21:03:13.024Z,87.49
2023-02-02T21:05:41.788Z,87.57
2023-02-02T21:08:14.121Z,87.56
2023-02-02T21:10:42.971Z,87.72
2023-02-02T21:13:11.386Z,87.48
2023-02-02T21:15:41.161Z,87.71
2023-02-02T21:18:10.701Z,87.73
2023-02-02T21:20:39.198Z,88.02
2023-02-02T21:23:09.649Z,88.13
2023-02-02T21:25:38.234Z,87.96
2023-02-02T21:28:06.785Z,88.22
2023-02-02T21:30:36.089Z,88.53
2023-02-02T21:33:05.697Z,88.36
2023-02-02T21:35:34.906Z,88.80
2023-02-02T21:38:10.299Z,88.77
2023-02-02T21:40:39.478Z,88.93
2023-02-02T21:43:14.771Z,88.88
2023-02-02T21:45:44.252Z,88.80
2023-02-02T21:48:27.557Z,89.16
2023-02-02T21:51:23.287Z,89.12
2023-02-02T21:53:52.370Z,88.99
2023-02-02T21:56:28.232Z,89.34
2023-02-02T21:58:58.846Z,89.26
2023-02-02T22:01:33.491Z,89.19
2023-02-02T22:04:02.353Z,89.14
2023-02-02T22:06:33.633Z,89.09
2023-02-02T22:09:12.317Z,89.14
2023-02-02T22:11:45.835Z,89.06
2023-02-02T22:14:18.747Z,89.24
2023-02-02T22:16:51.384Z,89.29
2023-02-02T22:19:38.484Z,89.24
2023-02-02T22:22:21.364Z,89.50
2023-02-02T22:24:59.776Z,89.83
2023-02-02T22:27:40.947Z,89.67
2023-02-02T22:30:17.456Z,89.72
2023-02-02T22:32:46.016Z,90.08
2023-02-02T22:35:14.794Z,89.58
2023-02-02T22:37:43.282Z,89.74
2023-02-02T22:40:13.931Z,89.99
2023-02-02T22:42:42.723Z,89.99
2023-02-02T22:45:11.751Z,90.09
2023-02-02T22:47:40.178Z,90.07
2023-02-02T22:50:09.748Z,90.22
2023-02-02T22:52:38.170Z,90.16
2023-02-02T22:55:07.733Z,90.09
2023-02-02T22:57:36.489Z,90.35
2023-02-02T23:00:12.127Z,90.25
2023-02-02T23:02:41.562Z,90.43
2023-02-02T23:05:12.137Z,90.40
2023-02-02T23:07:43.396Z,90.48
2023-02-02T23:10:13.570Z,90.71
2023-02-02T23:12:43.194Z,90.98
2023-02-02T23:15:15.224Z,90.74
2023-02-02T23:17:45.085Z,90.81
2023-02-02T23:20:15.218Z,90.81
2023-02-02T23:22:43.768Z,90.93
2023-02-02T23:25:12.473Z,90.79
2023-02-02T23:27:41.849Z,90.96
2023-02-02T23:30:12.868Z,90.85
2023-02-02T23:32:41.763Z,90.88
2023-02-02T23:35:11.205Z,90.80
2023-02-02T23:37:40.611Z,90.96
2023-02-02T23:40:11.811Z,91.02
2023-02-02T23:42:40.191Z,90.88
2023-02-02T23:45:10.127Z,90.91
2023-02-02T23:47:38.990Z,90.88
2023-02-02T23:50:10.682Z,90.86
2023-02-02T23:52:39.294Z,90.87
2023-02-02T23:55:12.771Z,90.77
2023-02-02T23:57:41.308Z,90.94
